createdAt,value
2022-12-24T00:02:22.323Z,38.24
2022-12-24T00:07:23.811Z,38.54
2022-12-24T00:12:25.204Z,38.09
2022-12-24T00:17:26.613Z,37.99
2022-12-24T00:22:27.987Z,37.68
2022-12-24T00:27:29.381Z,37.71
2022-12-24T00:32:30.769Z,38.09
2022-12-24T00:37:32.151Z,38.05
2022-12-24T00:42:33.529Z,38.11
2022-12-24T00:47:34.894Z,38.13
2022-12-24T00:52:36.291Z,38.22
2022-12-24T00:57:37.683Z,37.87
2022-12-24T01:02:39.171Z,37.71
2022-12-24T01:07:43.807Z,37.51
2022-12-24T01:12:45.409Z,37.30
2022-12-24T01:17:46.792Z,36.94
2022-12-24T01:22:48.871Z,36.49
2022-12-24T01:27:50.294Z,36.43
2022-12-24T01:32:51.679Z,36.09
2022-12-24T01:37:53.066Z,36.20
2022-12-24T01:43:13.252Z,36.41
2022-12-24T01:48:16.394Z,36.44
2022-12-24T01:53:17.789Z,36.44
2022-12-24T01:58:19.182Z,36.49
2022-12-24T02:03:20.710Z,36.42
2022-12-24T02:08:22.229Z,37.06
2022-12-24T02:13:23.621Z,36.82
2022-12-24T02:18:46.111Z,36.75
2022-12-24T02:23:57.066Z,36.70
2022-12-24T02:29:14.237Z,36.44
2022-12-24T02:34:31.860Z,36.23
2022-12-24T02:39:43.491Z,36.21
2022-12-24T02:44:49.878Z,36.27
2022-12-24T02:49:51.290Z,36.41
2022-12-24T02:54:52.675Z,36.50
2022-12-24T02:59:59.230Z,36.48
2022-12-24T03:05:24.793Z,36.51
2022-12-24T03:10:44.314Z,36.54
2022-12-24T03:15:46.229Z,36.41
2022-12-24T03:21:14.324Z,36.30
2022-12-24T03:26:16.884Z,36.29
2022-12-24T03:31:18.767Z,36.50
2022-12-24T03:36:20.232Z,36.49
2022-12-24T03:41:21.601Z,36.15
2022-12-24T03:46:23.028Z,36.28
2022-12-24T03:51:24.745Z,36.21
2022-12-24T03:56:26.262Z,36.24
2022-12-24T04:01:27.740Z,36.27
2022-12-24T04:06:29.224Z,36.20
2022-12-24T04:11:31.189Z,36.06
2022-12-24T04:16:32.639Z,36.09
2022-12-24T04:21:34.034Z,35.87
2022-12-24T04:26:35.424Z,35.72
2022-12-24T04:31:36.950Z,35.72
2022-12-24T04:36:38.404Z,35.59
2022-12-24T04:41:39.783Z,35.29
2022-12-24T04:46:42.231Z,34.93
2022-12-24T04:51:43.642Z,35.20
2022-12-24T04:56:45.039Z,35.32
2022-12-24T05:01:46.525Z,35.04
2022-12-24T05:06:47.984Z,35.01
2022-12-24T05:11:49.415Z,35.11
2022-12-24T05:16:50.888Z,35.25
2022-12-24T05:22:10.664Z,35.19
2022-12-24T05:27:13.202Z,35.41
2022-12-24T05:32:14.595Z,35.24
2022-12-24T05:37:15.968Z,35.29
2022-12-24T05:42:17.338Z,35.25
2022-12-24T05:47:18.717Z,34.99
2022-12-24T05:52:20.095Z,35.08
2022-12-24T05:57:21.474Z,34.97
2022-12-24T06:02:22.882Z,34.92
2022-12-24T06:07:24.268Z,34.80
2022-12-24T06:12:25.666Z,34.59
2022-12-24T06:17:27.050Z,34.69
2022-12-24T06:22:28.427Z,34.59
2022-12-24T06:27:29.820Z,34.72
2022-12-24T06:32:31.215Z,34.64
2022-12-24T06:37:32.604Z,34.58
2022-12-24T06:42:33.973Z,34.07
2022-12-24T06:47:35.423Z,34.02
2022-12-24T06:52:36.809Z,34.00
2022-12-24T06:57:38.205Z,33.53
2022-12-24T07:02:40.987Z,33.34
2022-12-24T07:07:43.667Z,33.05
2022-12-24T07:12:45.085Z,33.28
2022-12-24T07:17:46.637Z,32.92
2022-12-24T07:22:48.073Z,32.75
2022-12-24T07:27:49.451Z,32.63
2022-12-24T07:32:51.479Z,32.42
2022-12-24T07:37:52.868Z,32.25
2022-12-24T07:42:54.301Z,32.09
2022-12-24T07:47:55.684Z,32.00
2022-12-24T07:52:57.054Z,31.93
2022-12-24T07:57:58.438Z,31.91
2022-12-24T08:03:00.431Z,31.92
2022-12-24T08:08:02.004Z,31.98
2022-12-24T08:13:03.453Z,32.24
2022-12-24T08:18:04.949Z,32.53
2022-12-24T08:23:07.019Z,32.66
2022-12-24T08:28:08.402Z,32.66
2022-12-24T08:33:09.870Z,32.76
2022-12-24T08:38:11.252Z,32.60
2022-12-24T08:43:12.675Z,32.59
2022-12-24T08:48:14.055Z,32.79
2022-12-24T08:53:15.468Z,32.78
2022-12-24T08:58:16.868Z,32.68
2022-12-24T09:03:25.071Z,32.67
2022-12-24T09:08:28.952Z,32.25
2022-12-24T09:13:30.358Z,32.46
2022-12-24T09:18:31.757Z,32.52
2022-12-24T09:23:35.089Z,32.26
2022-12-24T09:28:36.493Z,32.22
2022-12-24T09:33:39.495Z,31.86
2022-12-24T09:38:40.958Z,31.86
2022-12-24T09:43:46.819Z,31.98
2022-12-24T09:48:49.334Z,31.77
2022-12-24T09:53:53.523Z,31.70
2022-12-24T09:58:59.766Z,31.77
2022-12-24T10:04:06.969Z,31.59
2022-12-24T10:10:01.030Z,31.59
2022-12-24T10:15:10.502Z,31.59
2022-12-24T10:20:18.610Z,31.67
2022-12-24T10:25:27.196Z,31.59
2022-12-24T10:30:28.712Z,31.62
2022-12-24T10:35:33.775Z,31.50
2022-12-24T10:40:40.642Z,31.79
2022-12-24T10:45:44.010Z,31.59
2022-12-24T10:51:07.616Z,31.55
2022-12-24T10:56:11.226Z,31.56
2022-12-24T11:01:12.819Z,31.60
2022-12-24T11:06:15.734Z,31.77
2022-12-24T11:11:19.990Z,31.87
2022-12-24T11:16:32.460Z,32.07
2022-12-24T11:21:38.514Z,32.08
2022-12-24T11:26:43.274Z,32.11
2022-12-24T11:31:44.731Z,32.31
2022-12-24T11:36:46.144Z,32.59
2022-12-24T11:41:48.213Z,32.65
2022-12-24T11:46:52.834Z,32.97
2022-12-24T11:52:09.538Z,32.94
2022-12-24T11:57:11.412Z,33.01
2022-12-24T12:02:36.774Z,33.07
2022-12-24T12:07:38.235Z,33.01
2022-12-24T12:12:47.144Z,33.31
2022-12-24T12:18:00.213Z,33.50
2022-12-24T12:23:04.460Z,33.32
2022-12-24T12:28:07.650Z,33.36
2022-12-24T12:33:27.234Z,33.38
2022-12-24T12:38:31.678Z,33.47
2022-12-24T12:44:01.347Z,33.50
2022-12-24T12:49:21.329Z,33.54
2022-12-24T12:55:07.623Z,33.68
2022-12-24T13:00:10.925Z,33.61
2022-12-24T13:05:18.411Z,33.87
2022-12-24T13:10:32.776Z,33.79
2022-12-24T13:16:14.980Z,33.98
2022-12-24T13:21:18.508Z,33.91
2022-12-24T13:26:19.949Z,33.81
2022-12-24T13:31:21.206Z,33.68
2022-12-24T13:36:22.616Z,33.85
2022-12-24T13:41:41.410Z,33.71
2022-12-24T13:47:06.490Z,33.74
2022-12-24T13:52:08.464Z,33.63
2022-12-24T13:57:32.415Z,33.75
2022-12-24T14:02:37.349Z,33.40
2022-12-24T14:07:38.868Z,33.26
2022-12-24T14:12:48.548Z,33.67
2022-12-24T14:17:49.930Z,33.58
2022-12-24T14:22:51.339Z,33.50
2022-12-24T14:28:00.877Z,33.42
2022-12-24T14:33:02.438Z,33.31
2022-12-24T14:38:05.363Z,33.29
2022-12-24T14:43:26.411Z,33.24
2022-12-24T14:48:48.954Z,33.12
2022-12-24T14:53:57.657Z,33.19
2022-12-24T14:59:04.423Z,33.07
2022-12-24T15:04:16.534Z,33.25
2022-12-24T15:09:24.102Z,32.93
2022-12-24T15:14:26.411Z,33.23
2022-12-24T15:19:30.934Z,33.45
2022-12-24T15:24:34.296Z,33.10
2022-12-24T15:29:39.282Z,33.38
2022-12-24T15:34:44.892Z,32.96
2022-12-24T15:40:19.856Z,33.10
2022-12-24T15:45:28.526Z,33.14
2022-12-24T15:50:31.807Z,33.05
2022-12-24T15:55:39.321Z,32.85
2022-12-24T16:00:40.699Z,32.96
2022-12-24T16:05:42.084Z,32.69
2022-12-24T16:10:47.458Z,32.51
2022-12-24T16:15:57.056Z,32.73
2022-12-24T16:20:58.465Z,32.71
2022-12-24T16:25:59.901Z,32.61
2022-12-24T16:31:01.367Z,32.78
2022-12-24T16:36:02.833Z,32.95
2022-12-24T16:41:04.627Z,33.20
2022-12-24T16:46:06.459Z,33.31
2022-12-24T16:51:07.903Z,33.41
2022-12-24T16:56:09.387Z,33.49
2022-12-24T17:01:10.971Z,33.51
2022-12-24T17:06:12.459Z,33.59
2022-12-24T17:11:13.875Z,33.63
2022-12-24T17:16:15.256Z,33.80
2022-12-24T17:21:17.126Z,33.69
2022-12-24T17:26:18.529Z,33.49
2022-12-24T17:31:20.037Z,33.48
2022-12-24T17:36:21.453Z,33.77
2022-12-24T17:41:22.851Z,33.87
2022-12-24T17:46:24.341Z,33.69
2022-12-24T17:51:25.770Z,33.64
2022-12-24T17:56:27.385Z,33.81
2022-12-24T18:01:31.745Z,33.66
2022-12-24T18:06:33.308Z,33.76
2022-12-24T18:11:38.726Z,33.77
2022-12-24T18:16:40.421Z,33.50
2022-12-24T18:21:41.883Z,33.45
2022-12-24T18:26:43.443Z,33.43
2022-12-24T18:31:44.875Z,33.45
2022-12-24T18:36:49.718Z,33.44
2022-12-24T18:41:56.137Z,33.41
2022-12-24T18:46:57.671Z,33.10
2022-12-24T18:51:59.075Z,33.09
2022-12-24T18:57:00.455Z,32.85
2022-12-24T19:02:02.463Z,32.82
2022-12-24T19:07:03.975Z,32.70
2022-12-24T19:12:05.566Z,32.61
2022-12-24T19:17:06.954Z,32.51
2022-12-24T19:22:08.356Z,32.76
2022-12-24T19:27:09.790Z,32.61
2022-12-24T19:32:11.181Z,32.07
2022-12-24T19:37:12.725Z,32.04
2022-12-24T19:42:14.133Z,32.01
2022-12-24T19:47:15.519Z,32.10
2022-12-24T19:52:16.921Z,32.27
2022-12-24T19:57:18.307Z,32.04
2022-12-24T20:02:19.835Z,31.94
2022-12-24T20:07:21.377Z,32.06
2022-12-24T20:12:22.771Z,32.22
2022-12-24T20:17:24.150Z,32.05
2022-12-24T20:22:25.538Z,31.94
2022-12-24T20:27:26.982Z,31.92
2022-12-24T20:32:29.607Z,32.02
2022-12-24T20:37:31.071Z,31.97
2022-12-24T20:42:32.466Z,32.02
2022-12-24T20:47:33.909Z,31.98
2022-12-24T20:52:35.304Z,31.98
2022-12-24T20:57:36.967Z,31.98
2022-12-24T21:02:38.579Z,32.03
2022-12-24T21:07:40.557Z,32.14
2022-12-24T21:12:58.737Z,32.04
2022-12-24T21:18:00.197Z,32.10
2022-12-24T21:23:01.707Z,32.08
2022-12-24T21:28:03.121Z,32.32
2022-12-24T21:33:04.525Z,32.15
2022-12-24T21:38:05.918Z,32.33
2022-12-24T21:43:09.911Z,32.08
2022-12-24T21:48:31.260Z,32.07
2022-12-24T21:53:51.226Z,32.44
2022-12-24T21:58:52.667Z,32.27
2022-12-24T22:03:54.047Z,32.38
2022-12-24T22:09:14.802Z,32.17
2022-12-24T22:14:16.594Z,32.22
2022-12-24T22:19:18.150Z,32.04
2022-12-24T22:24:19.560Z,32.30
2022-12-24T22:29:20.981Z,32.20
2022-12-24T22:34:22.359Z,32.06
2022-12-24T22:39:23.747Z,32.10
2022-12-24T22:44:25.248Z,32.15
2022-12-24T22:49:26.622Z,32.25
2022-12-24T22:54:28.026Z,32.13
2022-12-24T22:59:29.399Z,31.80
2022-12-24T23:04:35.233Z,31.89
2022-12-24T23:09:36.559Z,31.74
2022-12-24T23:14:58.197Z,32.14
2022-12-24T23:20:01.359Z,31.90
2022-12-24T23:25:02.822Z,31.61
2022-12-24T23:30:04.527Z,31.86
2022-12-24T23:35:06.538Z,31.72
2022-12-24T23:40:08.538Z,31.79
2022-12-24T23:45:10.076Z,31.66
2022-12-24T23:50:11.539Z,31.70
2022-12-24T23:55:12.920Z,31.73
